CYYW

Armstrong Airport

Armstrong, Ontario, Canada
METAR CYYW 221800Z AUTO 13010G15KT 9SM FEW220 12/M04 A3021 RMK SLP242
Observed Flight Rules
Apr-22 @ 18:00 UTC (21 minutes ago) Visual Flight Rules
Wind Visibility Clouds
130° at 10 knots
 Gusting to 15 knots
9 miles
  • Few at 22,000' AGL
Temperatures Readings
Current 12°C / 54°F
Dewpoint -4°C / 25°F
Humidity 33%
Altimeter 30.21" Hg
Pressure 1024.2 hPa
Elevation 351
METAR CYYW 221800Z AUTO 13010G15KT 9SM FEW220 12/M04 A3021 RMK SLP242
Observed Flight Rules
Apr-22 @ 18:00 UTC
(21 minutes ago)
VFR
Wind Visibility
130° at 10 knots
 Gusting to 15 knots
9 miles
Clouds
  • Few at 22,000' AGL
Temperature Dewpoint
12°C / 54°F -4°C / 25°F
Humidity Altimeter Pressure
33% 30.21" Hg 1024.2 hPa